createdAt,value
2023-01-19T00:00:06.128Z,95402.06
2023-01-19T00:02:32.782Z,95410.00
2023-01-19T00:04:59.543Z,95401.66
2023-01-19T00:07:26.193Z,95402.28
2023-01-19T00:09:52.775Z,95407.91
2023-01-19T00:12:19.277Z,95413.06
2023-01-19T00:14:45.703Z,95416.66
2023-01-19T00:17:12.199Z,95424.19
2023-01-19T00:19:38.755Z,95424.19
2023-01-19T00:22:06.070Z,95420.84
2023-01-19T00:24:33.086Z,95417.69
2023-01-19T00:27:00.254Z,95421.31
2023-01-19T00:29:27.765Z,95423.47
2023-01-19T00:31:54.312Z,95425.25
2023-01-19T00:34:20.908Z,95419.31
2023-01-19T00:36:47.375Z,95420.69
2023-01-19T00:39:13.961Z,95424.91
2023-01-19T00:41:58.791Z,95422.19
2023-01-19T00:44:26.126Z,95423.00
2023-01-19T00:46:52.723Z,95420.13
2023-01-19T00:49:19.251Z,95437.84
2023-01-19T00:51:45.752Z,95420.50
2023-01-19T00:54:12.262Z,95423.34
2023-01-19T00:56:38.814Z,95429.28
2023-01-19T00:59:05.345Z,95435.47
2023-01-19T01:01:45.283Z,95426.06
2023-01-19T01:04:13.643Z,95427.38
2023-01-19T01:06:40.487Z,95426.28
2023-01-19T01:09:11.949Z,95434.38
2023-01-19T01:11:42.644Z,95435.06
2023-01-19T01:14:11.446Z,95437.25
2023-01-19T01:16:38.311Z,95437.00
2023-01-19T01:19:05.098Z,95436.63
2023-01-19T01:21:31.769Z,95444.81
2023-01-19T01:23:58.420Z,95436.72
2023-01-19T01:26:27.115Z,95441.72
2023-01-19T01:28:54.282Z,95449.91
2023-01-19T01:31:20.847Z,95444.72
2023-01-19T01:33:47.412Z,95446.22
2023-01-19T01:36:13.989Z,95444.94
2023-01-19T01:38:41.441Z,95446.09
2023-01-19T01:41:09.143Z,95451.59
2023-01-19T01:43:45.645Z,95460.88
2023-01-19T01:46:15.467Z,95456.13
2023-01-19T01:48:47.573Z,95461.09
2023-01-19T01:51:26.190Z,95466.22
2023-01-19T01:53:55.983Z,95458.53
2023-01-19T01:56:26.922Z,95462.22
2023-01-19T01:58:53.732Z,95457.88
2023-01-19T02:01:39.425Z,95463.72
2023-01-19T02:04:05.988Z,95464.13
2023-01-19T02:06:32.549Z,95464.88
2023-01-19T02:09:27.130Z,95454.91
2023-01-19T02:12:13.555Z,95470.25
2023-01-19T02:14:40.075Z,95470.94
2023-01-19T02:17:07.191Z,95467.72
2023-01-19T02:19:42.178Z,95467.22
2023-01-19T02:22:20.530Z,95468.94
2023-01-19T02:24:47.350Z,95468.41
2023-01-19T02:27:13.932Z,95467.19
2023-01-19T02:29:40.643Z,95474.59
2023-01-19T02:32:07.558Z,95472.97
2023-01-19T02:34:35.073Z,95478.84
2023-01-19T02:37:07.257Z,95487.75
2023-01-19T02:39:43.011Z,95485.22
2023-01-19T02:42:13.953Z,95493.56
2023-01-19T02:44:43.451Z,95494.75
2023-01-19T02:47:10.208Z,95499.97
2023-01-19T02:49:36.808Z,95501.44
2023-01-19T02:52:04.291Z,95501.38
2023-01-19T02:54:45.848Z,95503.72
2023-01-19T02:57:40.081Z,95507.00
2023-01-19T03:00:09.808Z,95507.72
2023-01-19T03:03:03.241Z,95494.06
2023-01-19T03:05:35.748Z,95500.25
2023-01-19T03:08:15.335Z,95486.09
2023-01-19T03:11:00.640Z,95509.34
2023-01-19T03:13:42.119Z,95503.25
2023-01-19T03:16:18.339Z,95509.59
2023-01-19T03:18:49.736Z,95504.22
2023-01-19T03:21:19.602Z,95501.72
2023-01-19T03:23:47.708Z,95509.19
2023-01-19T03:26:18.815Z,95508.97
2023-01-19T03:28:47.235Z,95513.19
2023-01-19T03:31:21.727Z,95514.00
2023-01-19T03:33:53.890Z,95506.28
2023-01-19T03:36:29.686Z,95512.69
2023-01-19T03:38:58.336Z,95505.97
2023-01-19T03:41:26.995Z,95513.75
2023-01-19T03:43:53.721Z,95521.13
2023-01-19T03:46:21.045Z,95518.25
2023-01-19T03:48:48.090Z,95527.97
2023-01-19T03:51:16.087Z,95530.06
2023-01-19T03:53:43.080Z,95526.19
2023-01-19T03:56:17.960Z,95532.16
2023-01-19T03:58:44.824Z,95526.63
2023-01-19T04:01:11.442Z,95532.63
2023-01-19T04:03:38.097Z,95532.47
2023-01-19T04:06:04.847Z,95532.81
2023-01-19T04:08:32.528Z,95530.63
2023-01-19T04:10:59.182Z,95536.50
2023-01-19T04:13:30.144Z,95536.25
2023-01-19T04:16:01.339Z,95542.13
2023-01-19T04:18:29.627Z,95533.59
2023-01-19T04:21:00.348Z,95529.41
2023-01-19T04:23:27.239Z,95539.84
2023-01-19T04:26:20.651Z,95543.94
2023-01-19T04:28:47.160Z,95540.66
2023-01-19T04:31:14.439Z,95548.06
2023-01-19T04:33:41.010Z,95548.47
2023-01-19T04:36:08.541Z,95546.84
2023-01-19T04:38:35.359Z,95549.44
2023-01-19T04:41:01.913Z,95551.50
2023-01-19T04:43:29.433Z,95551.66
2023-01-19T04:45:57.129Z,95551.09
2023-01-19T04:48:23.634Z,95551.72
2023-01-19T04:50:52.510Z,95563.13
2023-01-19T04:53:19.025Z,95563.84
2023-01-19T04:55:47.186Z,95565.22
2023-01-19T04:58:14.065Z,95569.69
2023-01-19T05:00:40.553Z,95570.00
2023-01-19T05:03:07.147Z,95571.28
2023-01-19T05:05:34.192Z,95567.72
2023-01-19T05:08:00.939Z,95584.13
2023-01-19T05:10:27.892Z,95574.94
2023-01-19T05:12:54.994Z,95580.41
2023-01-19T05:15:21.590Z,95588.16
2023-01-19T05:17:48.144Z,95587.41
2023-01-19T05:20:16.429Z,95597.63
2023-01-19T05:22:48.297Z,95595.13
2023-01-19T05:25:14.772Z,95598.34
2023-01-19T05:27:41.249Z,95605.44
2023-01-19T05:30:08.598Z,95609.41
2023-01-19T05:32:35.041Z,95608.78
2023-01-19T05:35:01.936Z,95600.47
2023-01-19T05:37:28.419Z,95607.84
2023-01-19T05:39:54.884Z,95604.31
2023-01-19T05:42:21.441Z,95615.25
2023-01-19T05:44:48.256Z,95610.28
2023-01-19T05:47:14.933Z,95617.66
2023-01-19T05:49:41.777Z,95617.59
2023-01-19T05:52:08.275Z,95609.31
2023-01-19T05:54:34.748Z,95622.78
2023-01-19T05:57:01.621Z,95619.06
2023-01-19T05:59:28.943Z,95627.69
2023-01-19T06:01:57.162Z,95627.97
2023-01-19T06:04:23.927Z,95633.16
2023-01-19T06:06:51.103Z,95629.31
2023-01-19T06:09:18.008Z,95633.25
2023-01-19T06:11:45.440Z,95638.44
2023-01-19T06:14:12.620Z,95640.03
2023-01-19T06:16:39.165Z,95636.75
2023-01-19T06:19:05.746Z,95642.06
2023-01-19T06:21:32.573Z,95636.81
2023-01-19T06:23:59.102Z,95648.16
2023-01-19T06:26:26.321Z,95647.53
2023-01-19T06:28:53.036Z,95645.47
2023-01-19T06:31:19.821Z,95651.75
2023-01-19T06:33:46.485Z,95649.75
2023-01-19T06:36:12.985Z,95656.75
2023-01-19T06:38:39.434Z,95668.91
2023-01-19T06:41:06.097Z,95671.69
2023-01-19T06:43:32.727Z,95673.59
2023-01-19T06:46:00.709Z,95687.72
2023-01-19T06:48:27.380Z,95680.19
2023-01-19T06:50:54.204Z,95682.72
2023-01-19T06:53:22.255Z,95689.19
2023-01-19T06:55:49.004Z,95683.69
2023-01-19T06:58:15.763Z,95691.66
2023-01-19T07:00:43.106Z,95685.38
2023-01-19T07:03:22.189Z,95707.91
2023-01-19T07:05:58.099Z,95701.69
2023-01-19T07:08:25.016Z,95714.31
2023-01-19T07:11:26.759Z,95712.28
2023-01-19T07:13:40.554Z,95713.59
2023-01-19T07:16:08.339Z,95719.63
2023-01-19T07:18:36.218Z,95714.03
2023-01-19T07:21:02.985Z,95717.34
2023-01-19T07:23:30.747Z,95718.88
2023-01-19T07:25:58.232Z,95719.16
2023-01-19T07:28:25.906Z,95717.03
2023-01-19T07:30:53.939Z,95723.13
2023-01-19T07:33:25.408Z,95720.97
2023-01-19T07:35:52.924Z,95721.28
2023-01-19T07:38:19.638Z,95727.41
2023-01-19T07:40:48.895Z,95726.19
2023-01-19T07:43:16.249Z,95719.31
2023-01-19T07:45:43.411Z,95728.28
2023-01-19T07:48:10.067Z,95732.25
2023-01-19T07:50:36.579Z,95719.50
2023-01-19T07:53:07.585Z,95716.44
2023-01-19T07:55:34.363Z,95723.03
2023-01-19T07:58:01.102Z,95718.41
2023-01-19T08:00:27.682Z,95727.59
2023-01-19T08:03:00.162Z,95721.94
2023-01-19T08:05:28.909Z,95726.25
2023-01-19T08:07:57.653Z,95731.53
2023-01-19T08:10:27.622Z,95738.03
2023-01-19T08:12:55.993Z,95739.50
2023-01-19T08:15:24.931Z,95739.38
2023-01-19T08:17:57.349Z,95735.84
2023-01-19T08:20:25.209Z,95742.00
2023-01-19T08:22:51.893Z,95749.16
2023-01-19T08:25:18.544Z,95746.28
2023-01-19T08:27:45.093Z,95750.09
2023-01-19T08:30:11.886Z,95745.47
2023-01-19T08:32:38.625Z,95749.59
2023-01-19T08:35:06.180Z,95748.03
2023-01-19T08:37:34.214Z,95749.59
2023-01-19T08:40:00.829Z,95748.88
2023-01-19T08:42:28.066Z,95746.50
2023-01-19T08:44:58.659Z,95753.19
2023-01-19T08:47:26.534Z,95747.94
2023-01-19T08:49:52.999Z,95750.22
2023-01-19T08:52:19.460Z,95749.31
2023-01-19T08:54:45.924Z,95752.91
2023-01-19T08:57:12.479Z,95750.72
2023-01-19T08:59:38.990Z,95745.41
2023-01-19T09:02:06.038Z,95750.78
2023-01-19T09:04:34.510Z,95742.88
2023-01-19T09:07:01.067Z,95752.38
2023-01-19T09:09:27.580Z,95742.84
2023-01-19T09:11:54.997Z,95740.03
2023-01-19T09:14:21.557Z,95735.72
2023-01-19T09:16:48.519Z,95733.66
2023-01-19T09:19:14.998Z,95741.47
2023-01-19T09:21:41.560Z,95737.22
2023-01-19T09:24:08.937Z,95734.47
2023-01-19T09:26:36.576Z,95737.19
2023-01-19T09:29:03.087Z,95740.72
2023-01-19T09:31:30.161Z,95725.56
2023-01-19T09:33:56.696Z,95727.88
2023-01-19T09:36:23.181Z,95731.78
2023-01-19T09:38:49.774Z,95724.44
2023-01-19T09:41:22.153Z,95721.59
2023-01-19T09:43:56.736Z,95714.63
2023-01-19T09:46:33.422Z,95723.81
2023-01-19T09:49:05.068Z,95718.88
2023-01-19T09:51:36.212Z,95712.59
2023-01-19T09:54:22.529Z,95717.38
2023-01-19T09:56:52.515Z,95727.13
2023-01-19T09:59:29.789Z,95725.53
2023-01-19T10:02:18.589Z,95727.06
2023-01-19T10:05:01.391Z,95732.41
2023-01-19T10:07:45.467Z,95721.16
2023-01-19T10:10:28.826Z,95726.63
2023-01-19T10:13:22.613Z,95723.22
2023-01-19T10:16:14.644Z,95720.81
2023-01-19T10:18:52.694Z,95727.38
2023-01-19T10:21:19.759Z,95726.03
2023-01-19T10:23:52.185Z,95726.56
2023-01-19T10:26:25.404Z,95721.28
2023-01-19T10:28:57.591Z,95726.88
2023-01-19T10:31:28.108Z,95726.88
2023-01-19T10:33:54.759Z,95727.25
2023-01-19T10:36:29.935Z,95718.59
2023-01-19T10:38:56.582Z,95721.09
2023-01-19T10:41:36.094Z,95720.75
2023-01-19T10:44:05.409Z,95709.56
2023-01-19T10:46:45.072Z,95717.06
2023-01-19T10:49:31.294Z,95713.47
2023-01-19T10:51:59.182Z,95705.97
2023-01-19T10:54:27.704Z,95713.81
2023-01-19T10:57:01.070Z,95717.41
2023-01-19T10:59:38.249Z,95709.91
2023-01-19T11:02:17.875Z,95715.09
2023-01-19T11:04:46.884Z,95708.31
2023-01-19T11:07:24.955Z,95702.25
2023-01-19T11:10:13.659Z,95704.38
2023-01-19T11:12:56.219Z,95698.84
2023-01-19T11:15:26.047Z,95694.88
2023-01-19T11:17:53.673Z,95690.16
2023-01-19T11:20:29.170Z,95683.84
2023-01-19T11:23:08.108Z,95684.84
2023-01-19T11:25:36.181Z,95687.13
2023-01-19T11:28:03.610Z,95682.53
2023-01-19T11:30:30.564Z,95675.28
2023-01-19T11:32:57.185Z,95668.41
2023-01-19T11:35:41.625Z,95666.78
2023-01-19T11:38:20.376Z,95653.88
2023-01-19T11:40:52.940Z,95655.22
2023-01-19T11:43:21.517Z,95663.25
2023-01-19T11:45:48.115Z,95657.16
2023-01-19T11:48:25.447Z,95639.28
2023-01-19T11:50:52.490Z,95630.31
2023-01-19T11:53:26.388Z,95634.13
2023-01-19T11:56:04.672Z,95638.00
2023-01-19T11:58:37.153Z,95628.50
2023-01-19T12:01:11.131Z,95623.06
2023-01-19T12:03:42.501Z,95622.13
2023-01-19T12:06:16.397Z,95630.34
2023-01-19T12:08:48.319Z,95615.13
2023-01-19T12:11:19.503Z,95605.56
2023-01-19T12:13:46.987Z,95601.41
2023-01-19T12:16:22.406Z,95593.28
2023-01-19T12:18:58.976Z,95583.56
2023-01-19T12:21:26.575Z,95580.13
2023-01-19T12:24:23.294Z,95586.34
2023-01-19T12:27:00.507Z,95580.19
2023-01-19T12:29:33.750Z,95580.63
2023-01-19T12:32:18.638Z,95586.47
2023-01-19T12:34:48.604Z,95589.53
2023-01-19T12:37:32.191Z,95576.81
2023-01-19T12:40:29.174Z,95582.78
2023-01-19T12:43:00.210Z,95563.69
2023-01-19T12:45:32.927Z,95567.06
2023-01-19T12:47:59.764Z,95554.13
2023-01-19T12:50:26.916Z,95555.44
2023-01-19T12:52:58.389Z,95549.78
2023-01-19T12:55:34.592Z,95540.88
2023-01-19T12:58:24.084Z,95543.72
2023-01-19T13:01:15.363Z,95537.34
2023-01-19T13:04:09.672Z,95530.41
2023-01-19T13:06:48.530Z,95530.75
2023-01-19T13:09:32.098Z,95532.63
2023-01-19T13:12:11.375Z,95540.63
2023-01-19T13:14:38.247Z,95544.19
2023-01-19T13:17:16.977Z,95555.28
2023-01-19T13:19:52.312Z,95563.53
2023-01-19T13:22:47.482Z,95560.59
2023-01-19T13:25:26.585Z,95554.97
2023-01-19T13:27:53.266Z,95551.81
2023-01-19T13:30:24.864Z,95545.75
2023-01-19T13:32:51.601Z,95541.72
2023-01-19T13:35:19.970Z,95538.03
2023-01-19T13:37:46.498Z,95539.91
2023-01-19T13:40:32.128Z,95534.69
2023-01-19T13:42:58.890Z,95540.56
2023-01-19T13:45:35.528Z,95544.28
2023-01-19T13:48:07.582Z,95544.97
2023-01-19T13:50:38.743Z,95543.69
2023-01-19T13:53:19.349Z,95549.06
2023-01-19T13:55:47.975Z,95543.44
2023-01-19T13:58:23.380Z,95552.25
2023-01-19T14:00:50.291Z,95557.22
2023-01-19T14:03:22.952Z,95547.16
2023-01-19T14:05:51.695Z,95559.47
2023-01-19T14:08:19.255Z,95561.03
2023-01-19T14:10:48.644Z,95574.81
2023-01-19T14:13:25.962Z,95584.81
2023-01-19T14:15:56.687Z,95594.25
2023-01-19T14:18:26.963Z,95598.53
2023-01-19T14:20:56.413Z,95602.41
2023-01-19T14:23:51.821Z,95599.81
2023-01-19T14:26:37.135Z,95598.69
2023-01-19T14:29:09.636Z,95595.31
2023-01-19T14:31:50.728Z,95602.78
2023-01-19T14:34:34.188Z,95602.81
2023-01-19T14:37:06.397Z,95606.69
2023-01-19T14:39:36.024Z,95612.44
2023-01-19T14:42:06.554Z,95611.34
2023-01-19T14:44:38.500Z,95612.88
2023-01-19T14:47:06.846Z,95611.00
2023-01-19T14:49:39.553Z,95614.28
2023-01-19T14:52:27.697Z,95618.91
2023-01-19T14:54:56.237Z,95621.09
2023-01-19T14:57:22.775Z,95614.69
2023-01-19T14:59:49.648Z,95615.88
2023-01-19T15:02:19.275Z,95623.03
2023-01-19T15:04:48.147Z,95619.72
2023-01-19T15:07:19.366Z,95616.97
2023-01-19T15:09:47.154Z,95619.34
2023-01-19T15:12:17.347Z,95610.69
2023-01-19T15:14:45.450Z,95618.44
2023-01-19T15:17:17.484Z,95622.38
2023-01-19T15:19:43.952Z,95618.47
2023-01-19T15:22:12.667Z,95617.78
2023-01-19T15:24:40.873Z,95626.16
2023-01-19T15:27:13.401Z,95619.69
2023-01-19T15:29:40.339Z,95626.31
2023-01-19T15:32:12.484Z,95623.09
2023-01-19T15:34:39.102Z,95622.44
2023-01-19T15:37:05.625Z,95627.81
2023-01-19T15:39:32.347Z,95621.56
2023-01-19T15:41:59.351Z,95626.50
2023-01-19T15:44:25.949Z,95619.88
2023-01-19T15:46:54.594Z,95610.28
2023-01-19T15:49:21.475Z,95615.72
2023-01-19T15:51:48.014Z,95614.94
2023-01-19T15:54:15.354Z,95613.41
2023-01-19T15:56:42.639Z,95619.81
2023-01-19T15:59:09.287Z,95624.28
2023-01-19T16:01:36.305Z,95618.84
2023-01-19T16:04:06.255Z,95618.47
2023-01-19T16:06:33.379Z,95623.38
2023-01-19T16:09:01.467Z,95623.06
2023-01-19T16:11:30.655Z,95630.19
2023-01-19T16:13:57.267Z,95629.03
2023-01-19T16:16:25.261Z,95623.75
2023-01-19T16:18:52.353Z,95624.94
2023-01-19T16:21:18.921Z,95624.44
2023-01-19T16:23:45.772Z,95629.81
2023-01-19T16:26:30.645Z,95631.09
2023-01-19T16:28:59.182Z,95633.50
2023-01-19T16:31:29.219Z,95640.41
2023-01-19T16:33:56.125Z,95648.38
2023-01-19T16:36:22.814Z,95644.88
2023-01-19T16:38:49.970Z,95646.03
2023-01-19T16:41:17.151Z,95647.03
2023-01-19T16:43:43.892Z,95641.22
2023-01-19T16:46:20.094Z,95642.97
2023-01-19T16:48:46.764Z,95641.22
2023-01-19T16:51:13.196Z,95642.31
2023-01-19T16:53:39.802Z,95630.25
2023-01-19T16:56:07.974Z,95637.25
2023-01-19T16:58:37.483Z,95629.94
2023-01-19T17:01:08.969Z,95625.84
2023-01-19T17:03:35.900Z,95631.19
2023-01-19T17:06:02.487Z,95625.78
2023-01-19T17:08:28.976Z,95632.44
2023-01-19T17:10:56.116Z,95629.56
2023-01-19T17:13:23.256Z,95626.75
2023-01-19T17:15:50.038Z,95629.31
2023-01-19T17:18:16.512Z,95631.63
2023-01-19T17:20:43.043Z,95625.03
2023-01-19T17:23:09.665Z,95618.38
2023-01-19T17:25:36.105Z,95622.75
2023-01-19T17:28:02.551Z,95630.56
2023-01-19T17:30:29.168Z,95625.03
2023-01-19T17:32:55.826Z,95616.50
2023-01-19T17:35:22.352Z,95621.81
2023-01-19T17:37:52.187Z,95624.69
2023-01-19T17:40:18.654Z,95614.06
2023-01-19T17:42:45.107Z,95611.47
2023-01-19T17:45:11.623Z,95623.16
2023-01-19T17:47:38.767Z,95618.09
2023-01-19T17:50:05.653Z,95620.31
2023-01-19T17:52:32.190Z,95621.94
2023-01-19T17:54:58.705Z,95618.19
2023-01-19T17:57:25.993Z,95617.47
2023-01-19T17:59:52.480Z,95617.66
2023-01-19T18:02:23.520Z,95619.25
2023-01-19T18:04:51.887Z,95620.25
2023-01-19T18:07:19.047Z,95617.47
2023-01-19T18:09:45.914Z,95621.50
2023-01-19T18:12:12.501Z,95613.22
2023-01-19T18:14:40.253Z,95607.72
2023-01-19T18:17:07.022Z,95620.84
2023-01-19T18:19:33.600Z,95618.94
2023-01-19T18:22:00.219Z,95607.00
2023-01-19T18:24:26.836Z,95609.63
2023-01-19T18:26:55.578Z,95612.69
2023-01-19T18:29:22.345Z,95614.16
2023-01-19T18:31:49.301Z,95610.16
2023-01-19T18:34:16.049Z,95606.13
2023-01-19T18:36:42.905Z,95602.16
2023-01-19T18:39:09.501Z,95607.53
2023-01-19T18:41:42.217Z,95597.78
2023-01-19T18:44:11.838Z,95603.09
2023-01-19T18:46:39.074Z,95592.63
2023-01-19T18:49:05.783Z,95595.69
2023-01-19T18:51:32.542Z,95590.78
2023-01-19T18:53:59.704Z,95589.69
2023-01-19T18:56:28.951Z,95586.34
2023-01-19T18:58:56.590Z,95585.16
2023-01-19T19:01:32.271Z,95590.13
2023-01-19T19:03:59.492Z,95582.03
2023-01-19T19:06:27.115Z,95587.81
2023-01-19T19:08:56.051Z,95584.97
2023-01-19T19:11:24.693Z,95587.06
2023-01-19T19:13:52.129Z,95578.34
2023-01-19T19:16:18.745Z,95579.25
2023-01-19T19:18:45.331Z,95581.53
2023-01-19T19:21:12.542Z,95577.41
2023-01-19T19:23:39.150Z,95579.06
2023-01-19T19:26:09.033Z,95587.53
2023-01-19T19:28:37.131Z,95577.41
2023-01-19T19:31:06.334Z,95579.19
2023-01-19T19:33:33.469Z,95574.38
2023-01-19T19:36:00.156Z,95575.13
2023-01-19T19:38:28.783Z,95575.56
2023-01-19T19:41:00.427Z,95573.28
2023-01-19T19:43:27.403Z,95569.13
2023-01-19T19:46:02.512Z,95569.34
2023-01-19T19:48:29.482Z,95564.81
2023-01-19T19:50:58.625Z,95578.69
2023-01-19T19:53:26.812Z,95580.16
2023-01-19T19:56:01.155Z,95585.41
2023-01-19T19:58:28.925Z,95587.59
2023-01-19T20:00:55.889Z,95578.44
2023-01-19T20:03:26.486Z,95583.25
2023-01-19T20:05:53.520Z,95582.13
2023-01-19T20:08:20.020Z,95582.56
2023-01-19T20:10:46.475Z,95578.75
2023-01-19T20:13:13.375Z,95573.91
2023-01-19T20:15:39.870Z,95575.19
2023-01-19T20:18:06.670Z,95574.09
2023-01-19T20:20:34.249Z,95570.69
2023-01-19T20:23:01.614Z,95572.28
2023-01-19T20:25:28.863Z,95583.78
2023-01-19T20:27:57.598Z,95581.56
2023-01-19T20:30:24.761Z,95570.06
2023-01-19T20:32:51.425Z,95571.09
2023-01-19T20:35:18.587Z,95574.41
2023-01-19T20:37:45.161Z,95579.19
2023-01-19T20:40:11.880Z,95581.94
2023-01-19T20:42:41.333Z,95582.34
2023-01-19T20:45:08.457Z,95587.72
2023-01-19T20:47:34.929Z,95583.41
2023-01-19T20:50:02.036Z,95586.25
2023-01-19T20:52:28.511Z,95585.28
2023-01-19T20:54:56.061Z,95593.28
2023-01-19T20:57:22.555Z,95598.25
2023-01-19T20:59:49.489Z,95591.78
2023-01-19T21:02:16.769Z,95593.00
2023-01-19T21:04:43.386Z,95593.19
2023-01-19T21:07:10.110Z,95604.84
2023-01-19T21:09:38.188Z,95601.22
2023-01-19T21:12:04.957Z,95603.72
2023-01-19T21:14:31.427Z,95610.50
2023-01-19T21:16:58.515Z,95615.41
2023-01-19T21:19:25.981Z,95603.78
2023-01-19T21:21:52.648Z,95609.47
2023-01-19T21:24:19.084Z,95600.00
2023-01-19T21:26:45.559Z,95603.13
2023-01-19T21:29:14.667Z,95624.34
2023-01-19T21:31:41.834Z,95623.91
2023-01-19T21:34:09.273Z,95608.69
2023-01-19T21:36:35.969Z,95610.16
2023-01-19T21:39:03.684Z,95614.25
2023-01-19T21:41:30.514Z,95619.06
2023-01-19T21:43:58.421Z,95612.69
2023-01-19T21:46:29.077Z,95616.19
2023-01-19T21:49:04.803Z,95616.81
2023-01-19T21:51:34.667Z,95621.94
2023-01-19T21:54:02.719Z,95621.72
2023-01-19T21:56:30.667Z,95615.38
2023-01-19T21:58:58.522Z,95621.28
2023-01-19T22:01:26.096Z,95625.56
2023-01-19T22:03:57.318Z,95621.44
2023-01-19T22:06:26.364Z,95636.31
2023-01-19T22:08:53.028Z,95635.09
2023-01-19T22:11:21.057Z,95631.53
2023-01-19T22:13:47.880Z,95646.44
2023-01-19T22:16:17.189Z,95641.53
2023-01-19T22:18:46.229Z,95645.69
2023-01-19T22:21:15.431Z,95649.25
2023-01-19T22:23:42.802Z,95647.97
2023-01-19T22:26:11.398Z,95654.31
2023-01-19T22:28:37.935Z,95656.66
2023-01-19T22:31:10.485Z,95663.28
2023-01-19T22:33:37.028Z,95659.81
2023-01-19T22:36:24.804Z,95668.63
2023-01-19T22:38:54.138Z,95657.72
2023-01-19T22:41:31.954Z,95657.16
2023-01-19T22:44:02.476Z,95664.69
2023-01-19T22:46:31.060Z,95667.50
2023-01-19T22:48:59.204Z,95664.78
2023-01-19T22:51:27.411Z,95660.88
2023-01-19T22:53:54.733Z,95663.72
2023-01-19T22:56:24.963Z,95663.31
2023-01-19T22:58:52.365Z,95661.44
2023-01-19T23:01:27.217Z,95657.25
2023-01-19T23:03:55.582Z,95663.28
2023-01-19T23:06:27.463Z,95671.03
2023-01-19T23:08:55.720Z,95670.44
2023-01-19T23:11:25.855Z,95673.31
2023-01-19T23:13:52.564Z,95677.59
2023-01-19T23:16:19.903Z,95683.91
2023-01-19T23:18:47.316Z,95686.59
2023-01-19T23:21:16.967Z,95684.50
2023-01-19T23:23:44.149Z,95680.41
2023-01-19T23:26:17.222Z,95687.47
2023-01-19T23:28:44.636Z,95684.91
2023-01-19T23:31:18.363Z,95689.69
2023-01-19T23:33:45.214Z,95688.47
2023-01-19T23:36:12.539Z,95687.03
2023-01-19T23:38:40.035Z,95698.22
2023-01-19T23:41:07.118Z,95698.88
2023-01-19T23:43:33.877Z,95702.75
2023-01-19T23:46:08.519Z,95703.19
2023-01-19T23:48:35.912Z,95706.78
2023-01-19T23:51:10.207Z,95710.06
2023-01-19T23:53:37.201Z,95712.34
2023-01-19T23:56:10.859Z,95717.19
2023-01-19T23:58:37.782Z,95715.00
